createdAt,value
2023-05-10T00:00:53.348Z,71.87
2023-05-10T00:03:21.821Z,71.85
2023-05-10T00:05:50.654Z,72.00
2023-05-10T00:08:19.058Z,72.01
2023-05-10T00:10:47.539Z,72.18
2023-05-10T00:13:17.415Z,72.31
2023-05-10T00:15:45.802Z,72.48
2023-05-10T00:18:14.216Z,72.35
2023-05-10T00:20:42.632Z,72.41
2023-05-10T00:23:11.061Z,72.55
2023-05-10T00:25:39.481Z,72.57
2023-05-10T00:28:09.125Z,72.74
2023-05-10T00:30:38.845Z,72.65
2023-05-10T00:33:08.429Z,72.77
2023-05-10T00:35:36.998Z,72.79
2023-05-10T00:38:05.410Z,72.68
2023-05-10T00:40:33.821Z,72.59
2023-05-10T00:43:02.484Z,72.70
2023-05-10T00:45:32.093Z,73.04
2023-05-10T00:48:04.743Z,73.32
2023-05-10T00:50:34.744Z,73.54
2023-05-10T00:53:04.305Z,73.79
2023-05-10T00:55:32.760Z,74.04
2023-05-10T00:58:01.217Z,74.48
2023-05-10T01:00:30.612Z,74.62
2023-05-10T01:03:01.694Z,74.83
2023-05-10T01:05:30.203Z,74.91
2023-05-10T01:08:01.609Z,74.95
2023-05-10T01:10:29.924Z,74.92
2023-05-10T01:12:58.513Z,75.23
2023-05-10T01:15:27.298Z,75.23
2023-05-10T01:17:56.047Z,75.21
2023-05-10T01:20:26.642Z,75.24
2023-05-10T01:23:24.252Z,76.03
2023-05-10T01:26:19.413Z,76.13
2023-05-10T01:29:15.970Z,75.97
2023-05-10T01:32:16.991Z,76.31
2023-05-10T01:34:52.024Z,75.79
2023-05-10T01:37:27.295Z,75.97
2023-05-10T01:40:02.317Z,76.35
2023-05-10T01:42:37.396Z,76.60
2023-05-10T01:45:16.600Z,76.63
2023-05-10T01:47:52.393Z,76.96
2023-05-10T01:50:29.829Z,76.75
2023-05-10T01:53:01.153Z,76.83
2023-05-10T01:55:34.213Z,76.93
2023-05-10T01:58:07.948Z,76.86
2023-05-10T02:00:38.721Z,76.67
2023-05-10T02:03:12.586Z,76.65
2023-05-10T02:05:42.938Z,76.62
2023-05-10T02:08:11.914Z,76.77
2023-05-10T02:10:41.989Z,77.18
2023-05-10T02:13:13.591Z,77.01
2023-05-10T02:15:53.286Z,77.23
2023-05-10T02:18:25.994Z,77.37
2023-05-10T02:20:56.036Z,77.16
2023-05-10T02:23:25.339Z,77.26
2023-05-10T02:25:55.462Z,77.42
2023-05-10T02:28:26.050Z,77.77
2023-05-10T02:30:56.275Z,77.49
2023-05-10T02:33:26.679Z,77.89
2023-05-10T02:35:56.781Z,78.05
2023-05-10T02:38:26.586Z,78.10
2023-05-10T02:40:55.828Z,77.84
2023-05-10T02:43:25.382Z,78.04
2023-05-10T02:45:54.138Z,78.32
2023-05-10T02:48:22.915Z,78.12
2023-05-10T02:50:56.954Z,78.16
2023-05-10T02:53:33.413Z,77.99
2023-05-10T02:56:04.811Z,77.79
2023-05-10T02:58:33.164Z,77.69
2023-05-10T03:01:02.726Z,78.09
2023-05-10T03:03:31.106Z,78.18
2023-05-10T03:06:01.045Z,78.50
2023-05-10T03:08:30.624Z,78.55
2023-05-10T03:11:12.819Z,79.02
2023-05-10T03:13:50.891Z,79.22
2023-05-10T03:16:24.315Z,79.20
2023-05-10T03:18:58.035Z,79.45
2023-05-10T03:21:32.773Z,79.45
2023-05-10T03:24:06.424Z,79.46
2023-05-10T03:26:35.998Z,79.61
2023-05-10T03:29:06.377Z,79.71
2023-05-10T03:31:35.196Z,80.09
2023-05-10T03:34:03.624Z,80.28
2023-05-10T03:36:33.326Z,80.22
2023-05-10T03:39:01.857Z,80.18
2023-05-10T03:41:30.317Z,79.84
2023-05-10T03:43:58.704Z,79.86
2023-05-10T03:46:27.387Z,80.04
2023-05-10T03:48:55.807Z,80.29
2023-05-10T03:51:25.136Z,80.49
2023-05-10T03:53:55.025Z,80.93
2023-05-10T03:56:23.399Z,80.59
2023-05-10T03:58:51.735Z,80.95
2023-05-10T04:01:20.187Z,80.82
2023-05-10T04:03:48.738Z,80.74
2023-05-10T04:06:17.482Z,80.86
2023-05-10T04:08:46.088Z,80.97
2023-05-10T04:11:15.859Z,80.98
2023-05-10T04:13:44.751Z,81.04
2023-05-10T04:16:14.434Z,81.08
2023-05-10T04:18:42.808Z,80.90
2023-05-10T04:21:14.289Z,80.72
2023-05-10T04:23:43.085Z,80.49
2023-05-10T04:26:12.984Z,80.99
2023-05-10T04:28:46.410Z,80.56
2023-05-10T04:31:14.990Z,80.66
2023-05-10T04:33:43.429Z,80.72
2023-05-10T04:36:14.831Z,80.64
2023-05-10T04:38:43.679Z,80.93
2023-05-10T04:41:13.754Z,80.64
2023-05-10T04:43:42.147Z,80.82
2023-05-10T04:46:13.365Z,80.79
2023-05-10T04:48:41.748Z,81.22
2023-05-10T04:51:14.397Z,81.08
2023-05-10T04:53:46.489Z,80.91
2023-05-10T04:56:19.568Z,81.43
2023-05-10T04:58:47.904Z,81.48
2023-05-10T05:01:18.099Z,81.38
2023-05-10T05:03:47.090Z,81.55
2023-05-10T05:06:15.640Z,81.89
2023-05-10T05:08:43.992Z,81.75
2023-05-10T05:11:13.959Z,82.16
2023-05-10T05:13:42.361Z,81.74
2023-05-10T05:16:11.985Z,81.97
2023-05-10T05:18:41.842Z,82.00
2023-05-10T05:21:17.065Z,82.21
2023-05-10T05:23:45.823Z,82.00
2023-05-10T05:26:14.295Z,81.88
2023-05-10T05:28:42.777Z,82.11
2023-05-10T05:31:14.938Z,82.23
2023-05-10T05:33:44.753Z,82.09
2023-05-10T05:36:14.533Z,82.32
2023-05-10T05:38:42.933Z,82.41
2023-05-10T05:41:11.880Z,82.59
2023-05-10T05:43:40.321Z,82.66
2023-05-10T05:46:08.759Z,82.91
2023-05-10T05:48:37.555Z,82.65
2023-05-10T05:51:07.568Z,82.46
2023-05-10T05:53:36.336Z,82.67
2023-05-10T05:56:05.385Z,82.31
2023-05-10T05:58:33.872Z,82.49
2023-05-10T06:01:02.249Z,82.54
2023-05-10T06:03:30.751Z,82.80
2023-05-10T06:05:59.349Z,82.76
2023-05-10T06:08:29.146Z,83.05
2023-05-10T06:10:57.513Z,83.16
2023-05-10T06:13:25.944Z,83.28
2023-05-10T06:15:54.400Z,83.21
2023-05-10T06:18:26.704Z,83.19
2023-05-10T06:20:55.123Z,83.65
2023-05-10T06:23:23.523Z,83.92
2023-05-10T06:25:53.533Z,84.06
2023-05-10T06:28:22.046Z,84.28
2023-05-10T06:30:50.545Z,84.52
2023-05-10T06:33:18.995Z,84.17
2023-05-10T06:35:47.473Z,84.52
2023-05-10T06:38:16.195Z,84.69
2023-05-10T06:40:44.648Z,84.51
2023-05-10T06:43:14.593Z,84.58
2023-05-10T06:45:43.034Z,84.52
2023-05-10T06:48:11.604Z,84.67
2023-05-10T06:50:40.077Z,84.63
2023-05-10T06:53:08.526Z,84.50
2023-05-10T06:55:36.977Z,84.37
2023-05-10T06:58:05.550Z,84.37
2023-05-10T07:00:35.424Z,84.16
2023-05-10T07:03:04.030Z,84.18
2023-05-10T07:05:32.618Z,84.26
2023-05-10T07:08:01.077Z,84.47
2023-05-10T07:10:29.548Z,84.88
2023-05-10T07:12:58.059Z,84.99
2023-05-10T07:15:26.624Z,84.27
2023-05-10T07:17:56.726Z,84.48
2023-05-10T07:20:25.181Z,84.36
2023-05-10T07:22:53.562Z,83.94
2023-05-10T07:25:22.036Z,84.07
2023-05-10T07:27:51.952Z,83.82
2023-05-10T07:30:20.607Z,83.69
2023-05-10T07:32:49.072Z,83.52
2023-05-10T07:35:19.167Z,83.65
2023-05-10T07:37:47.549Z,83.80
2023-05-10T07:40:15.996Z,83.58
2023-05-10T07:42:44.346Z,83.49
2023-05-10T07:45:13.785Z,83.58
2023-05-10T07:47:42.768Z,83.45
2023-05-10T07:50:11.535Z,83.49
2023-05-10T07:52:41.548Z,83.01
2023-05-10T07:55:11.309Z,83.12
2023-05-10T07:57:40.038Z,82.81
2023-05-10T08:00:09.917Z,83.10
2023-05-10T08:02:39.039Z,82.98
2023-05-10T08:05:08.245Z,83.29
2023-05-10T08:07:43.419Z,82.94
2023-05-10T08:10:14.507Z,82.93
2023-05-10T08:12:45.768Z,82.97
2023-05-10T08:15:17.165Z,83.06
2023-05-10T08:17:45.971Z,83.14
2023-05-10T08:20:17.728Z,82.46
2023-05-10T08:22:49.444Z,83.07
2023-05-10T08:25:19.852Z,83.02
2023-05-10T08:27:52.068Z,83.43
2023-05-10T08:30:20.982Z,82.99
2023-05-10T08:32:49.631Z,82.83
2023-05-10T08:35:18.968Z,82.86
2023-05-10T08:37:49.292Z,82.55
2023-05-10T08:40:17.792Z,82.67
2023-05-10T08:42:53.378Z,82.20
2023-05-10T08:45:24.959Z,82.17
2023-05-10T08:47:54.561Z,81.70
2023-05-10T08:50:23.932Z,82.04
2023-05-10T08:52:57.477Z,81.80
2023-05-10T08:55:26.374Z,82.08
2023-05-10T08:57:55.165Z,82.23
2023-05-10T09:00:27.936Z,82.22
2023-05-10T09:02:56.678Z,82.53
2023-05-10T09:05:25.380Z,82.53
2023-05-10T09:07:59.862Z,82.80
2023-05-10T09:10:29.742Z,82.66
2023-05-10T09:12:59.966Z,82.49
2023-05-10T09:15:28.572Z,82.48
2023-05-10T09:17:59.043Z,82.27
2023-05-10T09:20:27.628Z,82.23
2023-05-10T09:22:56.224Z,82.04
2023-05-10T09:25:26.045Z,82.11
2023-05-10T09:27:55.161Z,82.60
2023-05-10T09:30:27.606Z,83.05
2023-05-10T09:32:57.911Z,83.37
2023-05-10T09:35:29.630Z,83.36
2023-05-10T09:38:00.069Z,83.71
2023-05-10T09:40:31.498Z,83.34
2023-05-10T09:43:01.550Z,83.52
2023-05-10T09:45:32.414Z,83.52
2023-05-10T09:48:02.828Z,83.31
2023-05-10T09:50:32.012Z,83.73
2023-05-10T09:53:01.954Z,83.91
2023-05-10T09:55:42.690Z,83.95
2023-05-10T09:58:11.960Z,83.63
2023-05-10T10:00:41.705Z,83.49
2023-05-10T10:03:17.235Z,83.42
2023-05-10T10:05:47.051Z,83.29
2023-05-10T10:08:17.850Z,83.67
2023-05-10T10:10:48.928Z,83.43
2023-05-10T10:13:18.271Z,83.38
2023-05-10T10:15:47.832Z,83.27
2023-05-10T10:18:19.544Z,83.26
2023-05-10T10:20:48.169Z,83.21
2023-05-10T10:23:17.932Z,83.05
2023-05-10T10:25:49.973Z,83.13
2023-05-10T10:28:28.916Z,83.08
2023-05-10T10:31:01.961Z,83.04
2023-05-10T10:33:42.222Z,83.50
2023-05-10T10:36:10.820Z,83.67
2023-05-10T10:39:00.296Z,84.40
2023-05-10T10:41:37.619Z,84.44
2023-05-10T10:44:37.493Z,84.36
2023-05-10T10:47:25.722Z,84.01
2023-05-10T10:50:05.494Z,84.34
2023-05-10T10:52:35.238Z,84.17
2023-05-10T10:55:06.286Z,84.70
2023-05-10T10:57:45.684Z,85.09
2023-05-10T11:00:28.903Z,84.88
2023-05-10T11:03:00.521Z,84.49
2023-05-10T11:05:47.202Z,84.97
2023-05-10T11:08:19.175Z,84.68
2023-05-10T11:11:08.096Z,84.51
2023-05-10T11:13:41.094Z,84.11
2023-05-10T11:16:19.200Z,84.34
2023-05-10T11:19:00.580Z,84.44
2023-05-10T11:21:29.083Z,84.26
2023-05-10T11:23:58.938Z,84.34
2023-05-10T11:26:28.516Z,83.99
2023-05-10T11:28:59.484Z,84.01
2023-05-10T11:31:28.097Z,84.28
2023-05-10T11:33:57.938Z,84.58
2023-05-10T11:36:32.103Z,84.30
2023-05-10T11:39:00.758Z,84.70
2023-05-10T11:41:31.811Z,84.43
2023-05-10T11:44:01.680Z,83.82
2023-05-10T11:46:30.470Z,83.55
2023-05-10T11:49:05.218Z,83.54
2023-05-10T11:51:36.676Z,83.25
2023-05-10T11:54:09.275Z,83.08
2023-05-10T11:56:38.719Z,83.31
2023-05-10T11:59:09.235Z,83.48
2023-05-10T12:01:38.479Z,83.28
2023-05-10T12:04:07.228Z,83.34
2023-05-10T12:06:39.820Z,83.66
2023-05-10T12:09:09.694Z,83.64
2023-05-10T12:11:43.569Z,83.89
2023-05-10T12:14:14.207Z,84.12
2023-05-10T12:16:42.819Z,84.08
2023-05-10T12:19:11.786Z,84.36
2023-05-10T12:21:42.433Z,84.49
2023-05-10T12:24:11.646Z,84.41
2023-05-10T12:26:40.021Z,84.66
2023-05-10T12:29:21.307Z,84.51
2023-05-10T12:31:57.636Z,84.61
2023-05-10T12:34:33.813Z,84.46
2023-05-10T12:37:02.685Z,84.56
2023-05-10T12:39:41.348Z,84.70
2023-05-10T12:42:11.100Z,84.78
2023-05-10T12:44:40.975Z,84.57
2023-05-10T12:47:09.546Z,84.62
2023-05-10T12:49:38.340Z,84.73
2023-05-10T12:52:06.816Z,84.77
2023-05-10T12:54:35.338Z,84.57
2023-05-10T12:57:03.786Z,84.99
2023-05-10T12:59:32.563Z,85.22
2023-05-10T13:02:02.300Z,85.07
2023-05-10T13:04:30.751Z,85.14
2023-05-10T13:07:00.027Z,85.42
2023-05-10T13:09:30.355Z,85.58
2023-05-10T13:11:58.982Z,85.40
2023-05-10T13:14:27.851Z,85.66
2023-05-10T13:16:56.730Z,85.58
2023-05-10T13:19:26.483Z,85.73
2023-05-10T13:21:54.950Z,85.73
2023-05-10T13:24:23.345Z,85.75
2023-05-10T13:26:51.803Z,85.90
2023-05-10T13:29:20.320Z,86.25
2023-05-10T13:31:49.229Z,86.33
2023-05-10T13:34:21.319Z,86.29
2023-05-10T13:36:51.173Z,86.24
2023-05-10T13:39:20.178Z,86.22
2023-05-10T13:41:48.814Z,86.30
2023-05-10T13:44:18.682Z,86.33
2023-05-10T13:46:47.583Z,86.24
2023-05-10T13:49:16.354Z,86.35
2023-05-10T13:51:45.610Z,85.91
2023-05-10T13:54:15.409Z,86.21
2023-05-10T13:56:45.064Z,86.23
2023-05-10T13:59:13.502Z,86.14
2023-05-10T14:01:42.129Z,85.92
2023-05-10T14:04:11.609Z,86.05
2023-05-10T14:06:40.063Z,86.06
2023-05-10T14:09:08.463Z,86.16
2023-05-10T14:11:38.345Z,86.23
2023-05-10T14:14:06.693Z,86.01
2023-05-10T14:16:35.092Z,85.72
2023-05-10T14:19:03.786Z,86.10
2023-05-10T14:21:32.270Z,86.06
2023-05-10T14:24:00.825Z,86.07
2023-05-10T14:26:29.471Z,85.84
2023-05-10T14:28:59.947Z,85.73
2023-05-10T14:31:28.521Z,85.98
2023-05-10T14:33:56.917Z,86.06
2023-05-10T14:36:25.771Z,86.15
2023-05-10T14:38:54.143Z,85.77
2023-05-10T14:41:22.877Z,86.13
2023-05-10T14:43:51.229Z,86.04
2023-05-10T14:46:22.309Z,86.72
2023-05-10T14:48:50.997Z,86.69
2023-05-10T14:51:22.738Z,86.55
2023-05-10T14:53:51.277Z,86.72
2023-05-10T14:56:21.630Z,86.45
2023-05-10T14:58:50.036Z,86.78
2023-05-10T15:01:19.328Z,86.98
2023-05-10T15:03:50.308Z,87.15
2023-05-10T15:06:25.071Z,87.41
2023-05-10T15:08:53.683Z,87.30
2023-05-10T15:11:22.534Z,87.31
2023-05-10T15:13:50.918Z,87.18
2023-05-10T15:16:21.147Z,86.81
2023-05-10T15:18:50.969Z,87.05
2023-05-10T15:21:20.626Z,86.86
2023-05-10T15:23:49.099Z,86.52
2023-05-10T15:26:17.482Z,86.65
2023-05-10T15:28:46.101Z,86.74
2023-05-10T15:31:14.808Z,86.62
2023-05-10T15:33:43.202Z,87.00
2023-05-10T15:36:23.075Z,86.74
2023-05-10T15:38:51.453Z,87.08
2023-05-10T15:41:22.025Z,87.19
2023-05-10T15:43:50.416Z,87.20
2023-05-10T15:46:20.114Z,87.22
2023-05-10T15:48:48.585Z,87.67
2023-05-10T15:51:17.026Z,87.54
2023-05-10T15:54:00.424Z,87.63
2023-05-10T15:56:35.187Z,87.45
2023-05-10T15:59:03.752Z,87.22
2023-05-10T16:01:32.876Z,87.38
2023-05-10T16:04:01.968Z,87.30
2023-05-10T16:06:31.211Z,87.51
2023-05-10T16:09:01.157Z,87.82
2023-05-10T16:11:29.623Z,88.21
2023-05-10T16:13:58.100Z,88.44
2023-05-10T16:16:26.598Z,88.28
2023-05-10T16:18:55.024Z,88.27
2023-05-10T16:21:23.419Z,88.31
2023-05-10T16:23:51.798Z,88.35
2023-05-10T16:26:23.839Z,88.69
2023-05-10T16:28:52.265Z,88.31
2023-05-10T16:31:23.915Z,88.49
2023-05-10T16:33:52.275Z,88.51
2023-05-10T16:36:22.913Z,88.57
2023-05-10T16:38:51.260Z,88.50
2023-05-10T16:41:21.927Z,88.92
2023-05-10T16:43:50.534Z,88.71
2023-05-10T16:46:20.374Z,88.68
2023-05-10T16:48:48.745Z,88.74
2023-05-10T16:51:17.147Z,88.70
2023-05-10T16:53:45.581Z,88.88
2023-05-10T16:56:17.715Z,88.60
2023-05-10T16:58:50.043Z,88.85
2023-05-10T17:01:18.525Z,88.70
2023-05-10T17:03:47.169Z,89.05
2023-05-10T17:06:16.385Z,89.10
2023-05-10T17:08:45.461Z,89.02
2023-05-10T17:11:14.059Z,88.91
2023-05-10T17:13:42.446Z,88.64
2023-05-10T17:16:12.456Z,88.54
2023-05-10T17:18:42.470Z,88.48
2023-05-10T17:21:11.384Z,88.50
2023-05-10T17:23:39.811Z,88.74
2023-05-10T17:26:08.492Z,88.64
2023-05-10T17:28:36.849Z,88.70
2023-05-10T17:31:05.307Z,88.32
2023-05-10T17:33:35.188Z,88.36
2023-05-10T17:36:03.844Z,88.32
2023-05-10T17:38:37.303Z,88.45
2023-05-10T17:41:05.725Z,88.50
2023-05-10T17:43:34.164Z,88.53
2023-05-10T17:46:02.561Z,88.62
2023-05-10T17:48:42.527Z,88.47
2023-05-10T17:51:12.098Z,88.43
2023-05-10T17:53:40.727Z,88.58
2023-05-10T17:56:09.696Z,88.72
2023-05-10T17:58:38.736Z,88.76
2023-05-10T18:01:07.373Z,88.46
2023-05-10T18:03:36.054Z,88.42
2023-05-10T18:06:06.302Z,88.49
2023-05-10T18:08:34.744Z,88.55
2023-05-10T18:11:03.104Z,88.30
2023-05-10T18:13:32.080Z,88.13
2023-05-10T18:16:00.525Z,88.56
2023-05-10T18:18:29.169Z,88.75
2023-05-10T18:20:58.298Z,88.63
2023-05-10T18:23:28.168Z,88.55
2023-05-10T18:25:56.621Z,88.53
2023-05-10T18:28:25.663Z,88.55
2023-05-10T18:30:54.088Z,88.34
2023-05-10T18:33:23.583Z,88.46
2023-05-10T18:35:52.076Z,88.24
2023-05-10T18:38:23.537Z,88.36
2023-05-10T18:40:53.275Z,88.61
2023-05-10T18:43:24.921Z,88.54
2023-05-10T18:45:53.544Z,88.28
2023-05-10T18:48:23.272Z,88.53
2023-05-10T18:50:51.712Z,88.40
2023-05-10T18:53:20.136Z,88.23
2023-05-10T18:55:56.950Z,88.44
2023-05-10T18:58:29.548Z,88.19
2023-05-10T19:00:58.655Z,88.35
2023-05-10T19:03:27.173Z,88.29
2023-05-10T19:05:56.598Z,88.17
2023-05-10T19:08:25.093Z,88.24
2023-05-10T19:10:53.536Z,87.85
2023-05-10T19:13:23.042Z,87.89
2023-05-10T19:16:04.061Z,88.39
2023-05-10T19:18:33.179Z,88.11
2023-05-10T19:21:04.473Z,87.66
2023-05-10T19:23:34.398Z,87.72
2023-05-10T19:26:03.108Z,87.84
2023-05-10T19:28:31.873Z,87.64
2023-05-10T19:31:00.322Z,88.08
2023-05-10T19:33:30.700Z,87.68
2023-05-10T19:35:59.192Z,87.65
2023-05-10T19:38:27.675Z,87.18
2023-05-10T19:40:58.360Z,87.51
2023-05-10T19:43:27.698Z,87.73
2023-05-10T19:45:56.634Z,87.38
2023-05-10T19:48:25.212Z,87.26
2023-05-10T19:50:55.898Z,87.42
2023-05-10T19:53:24.900Z,87.50
2023-05-10T19:55:53.399Z,87.78
2023-05-10T19:58:24.214Z,87.45
2023-05-10T20:00:52.580Z,86.96
2023-05-10T20:03:21.085Z,87.00
2023-05-10T20:05:49.646Z,87.12
2023-05-10T20:08:27.310Z,87.23
2023-05-10T20:10:57.791Z,86.78
2023-05-10T20:13:26.293Z,86.99
2023-05-10T20:15:57.022Z,86.93
2023-05-10T20:18:25.739Z,86.93
2023-05-10T20:20:55.593Z,86.99
2023-05-10T20:23:25.294Z,87.02
2023-05-10T20:25:55.679Z,87.17
2023-05-10T20:28:26.493Z,86.67
2023-05-10T20:30:56.274Z,86.56
2023-05-10T20:33:26.360Z,86.18
2023-05-10T20:35:54.882Z,86.08
2023-05-10T20:38:25.098Z,86.05
2023-05-10T20:40:54.891Z,85.67
2023-05-10T20:43:26.093Z,85.35
2023-05-10T20:45:54.618Z,85.34
2023-05-10T20:48:25.489Z,85.54
2023-05-10T20:50:53.948Z,85.55
2023-05-10T20:53:23.295Z,85.63
2023-05-10T20:55:51.714Z,85.39
2023-05-10T20:58:21.480Z,85.72
2023-05-10T21:00:49.971Z,85.60
2023-05-10T21:03:18.354Z,85.52
2023-05-10T21:05:46.736Z,85.58
2023-05-10T21:08:15.071Z,85.95
2023-05-10T21:10:43.569Z,85.51
2023-05-10T21:13:12.044Z,85.73
2023-05-10T21:15:41.768Z,85.71
2023-05-10T21:18:10.203Z,85.76
2023-05-10T21:20:38.588Z,85.97
2023-05-10T21:23:07.244Z,85.85
2023-05-10T21:25:36.395Z,85.37
2023-05-10T21:28:05.307Z,85.69
2023-05-10T21:30:33.914Z,85.50
2023-05-10T21:33:04.030Z,85.47
2023-05-10T21:35:32.724Z,85.48
2023-05-10T21:38:01.049Z,85.86
2023-05-10T21:40:30.023Z,85.72
2023-05-10T21:42:58.431Z,85.69
2023-05-10T21:45:27.278Z,85.67
2023-05-10T21:47:55.757Z,85.80
2023-05-10T21:50:28.435Z,85.54
2023-05-10T21:52:57.164Z,85.51
2023-05-10T21:55:26.188Z,85.50
2023-05-10T21:58:04.583Z,85.55
2023-05-10T22:00:34.184Z,85.74
2023-05-10T22:03:02.880Z,85.72
2023-05-10T22:05:32.858Z,85.63
2023-05-10T22:08:01.190Z,86.01
2023-05-10T22:10:29.637Z,85.93
2023-05-10T22:12:59.715Z,86.02
2023-05-10T22:15:28.249Z,85.67
2023-05-10T22:18:04.644Z,85.86
2023-05-10T22:20:34.373Z,85.73
2023-05-10T22:23:02.714Z,85.70
2023-05-10T22:25:31.640Z,85.69
2023-05-10T22:27:59.980Z,85.80
2023-05-10T22:30:29.214Z,85.67
2023-05-10T22:33:00.473Z,85.92
2023-05-10T22:35:29.260Z,86.11
2023-05-10T22:37:59.056Z,86.23
2023-05-10T22:40:27.636Z,85.97
2023-05-10T22:42:55.974Z,85.93
2023-05-10T22:45:25.540Z,86.07
2023-05-10T22:47:53.936Z,85.86
2023-05-10T22:50:22.697Z,85.99
2023-05-10T22:52:51.140Z,86.34
2023-05-10T22:55:20.968Z,86.40
2023-05-10T22:57:49.386Z,86.27
2023-05-10T23:00:18.752Z,86.30
2023-05-10T23:02:47.317Z,86.49
2023-05-10T23:05:15.929Z,86.64
2023-05-10T23:07:44.327Z,86.27
2023-05-10T23:10:12.715Z,86.90
2023-05-10T23:12:44.816Z,86.46
2023-05-10T23:15:13.208Z,86.61
2023-05-10T23:17:41.734Z,87.13
2023-05-10T23:20:11.419Z,86.54
2023-05-10T23:22:40.102Z,86.69
2023-05-10T23:25:09.642Z,86.54
2023-05-10T23:27:38.063Z,86.63
2023-05-10T23:30:09.429Z,86.62
2023-05-10T23:32:47.782Z,86.68
2023-05-10T23:35:16.329Z,86.55
2023-05-10T23:37:44.683Z,86.65
2023-05-10T23:40:13.554Z,86.74
2023-05-10T23:42:41.978Z,87.15
2023-05-10T23:45:12.687Z,86.97
2023-05-10T23:47:45.459Z,86.43
2023-05-10T23:50:13.815Z,86.81
2023-05-10T23:52:43.073Z,86.75
2023-05-10T23:55:12.251Z,86.46
2023-05-10T23:57:40.601Z,86.99
